createdAt,value
2018-03-28T00:00:55.255Z,23.90
2018-03-28T00:02:48.714Z,22.30
2018-03-28T00:03:48.709Z,22.10
2018-03-28T00:05:44.151Z,25.20
2018-03-28T00:06:43.149Z,26.10
2018-03-28T00:08:36.618Z,23.30
2018-03-28T00:09:37.100Z,24.40
2018-03-28T00:11:30.983Z,24.40
2018-03-28T00:12:30.980Z,25.70
2018-03-28T00:14:24.450Z,27.50
2018-03-28T00:15:24.412Z,29.00
2018-03-28T00:17:18.879Z,25.80
2018-03-28T00:18:19.359Z,22.80
2018-03-28T00:20:13.302Z,26.90
2018-03-28T00:21:13.308Z,24.90
2018-03-28T00:23:07.717Z,24.20
2018-03-28T00:24:07.740Z,25.00
2018-03-28T00:26:02.688Z,26.70
2018-03-28T00:27:02.170Z,24.90
2018-03-28T00:28:57.605Z,23.00
2018-03-28T00:29:56.568Z,24.90
2018-03-28T00:31:50.023Z,27.00
2018-03-28T00:32:49.984Z,22.70
2018-03-28T00:34:44.932Z,28.10
2018-03-28T00:35:44.406Z,28.70
2018-03-28T00:37:39.364Z,26.10
2018-03-28T00:38:39.356Z,27.80
2018-03-28T00:40:32.279Z,28.10
2018-03-28T00:41:32.264Z,27.90
2018-03-28T00:43:25.683Z,27.40
2018-03-28T00:44:25.687Z,25.70
2018-03-28T00:46:20.164Z,27.70
2018-03-28T00:47:20.115Z,26.50
2018-03-28T00:49:14.578Z,25.50
2018-03-28T00:50:14.528Z,27.70
2018-03-28T00:52:07.945Z,26.60
2018-03-28T00:53:07.954Z,25.70
2018-03-28T00:55:02.898Z,23.80
2018-03-28T00:56:03.324Z,25.90
2018-03-28T00:57:57.341Z,27.80
2018-03-28T00:58:56.335Z,26.70
2018-03-28T01:00:50.274Z,25.70
2018-03-28T01:01:50.265Z,25.70
2018-03-28T01:03:44.224Z,30.40
2018-03-28T01:04:43.716Z,31.60
2018-03-28T01:06:37.137Z,24.50
2018-03-28T01:07:37.644Z,25.20
2018-03-28T01:09:31.078Z,22.30
2018-03-28T01:10:30.557Z,23.70
2018-03-28T01:12:26.537Z,25.80
2018-03-28T01:13:24.991Z,25.60
2018-03-28T01:15:19.430Z,23.00
2018-03-28T01:16:19.438Z,25.20
2018-03-28T01:18:12.937Z,25.40
2018-03-28T01:19:12.896Z,26.40
2018-03-28T01:21:08.858Z,29.50
2018-03-28T01:22:07.384Z,25.80
2018-03-28T01:24:03.796Z,26.90
2018-03-28T01:25:01.786Z,28.90
2018-03-28T01:26:56.242Z,29.20
2018-03-28T01:27:56.204Z,28.60
2018-03-28T01:29:50.648Z,28.70
2018-03-28T01:30:50.663Z,30.60
2018-03-28T01:32:44.101Z,31.10
2018-03-28T01:33:44.079Z,31.50
2018-03-28T01:35:38.486Z,33.00
2018-03-28T01:36:38.512Z,34.90
2018-03-28T01:38:34.957Z,34.40
2018-03-28T01:39:33.441Z,32.80
2018-03-28T01:41:27.365Z,27.10
2018-03-28T01:42:27.348Z,28.90
2018-03-28T01:44:22.797Z,28.20
2018-03-28T01:45:21.757Z,28.80
2018-03-28T01:47:15.216Z,25.80
2018-03-28T01:48:15.715Z,30.70
2018-03-28T01:50:08.665Z,31.50
2018-03-28T01:51:08.674Z,30.50
2018-03-28T01:53:05.105Z,34.10
2018-03-28T01:54:03.611Z,31.30
2018-03-28T01:55:58.559Z,31.40
2018-03-28T01:56:57.551Z,30.70
2018-03-28T01:58:52.024Z,29.10
2018-03-28T01:59:51.957Z,30.30
2018-03-28T02:01:48.414Z,34.80
2018-03-28T02:02:46.907Z,35.40
2018-03-28T02:04:40.824Z,32.20
2018-03-28T02:05:40.817Z,34.50
2018-03-28T02:07:36.273Z,30.20
2018-03-28T02:08:35.789Z,33.00
2018-03-28T02:10:30.208Z,31.00
2018-03-28T02:11:29.703Z,28.90
2018-03-28T02:13:23.108Z,34.90
2018-03-28T02:14:23.117Z,31.50
2018-03-28T02:16:19.091Z,32.70
2018-03-28T02:17:19.070Z,33.00
2018-03-28T02:19:12.482Z,28.30
2018-03-28T02:20:12.461Z,27.80
2018-03-28T02:22:06.910Z,29.70
2018-03-28T02:23:06.413Z,27.70
2018-03-28T02:25:00.837Z,31.40
2018-03-28T02:26:00.325Z,34.10
2018-03-28T02:27:56.291Z,32.20
2018-03-28T02:28:56.259Z,30.00
2018-03-28T02:30:49.692Z,26.70
2018-03-28T02:31:49.698Z,32.20
2018-03-28T02:33:43.115Z,30.80
2018-03-28T02:34:43.654Z,30.90
2018-03-28T02:36:39.088Z,30.80
2018-03-28T02:37:39.065Z,34.10
2018-03-28T02:39:36.014Z,31.80
2018-03-28T02:40:35.527Z,35.30
2018-03-28T02:42:29.947Z,30.70
2018-03-28T02:43:29.434Z,36.00
2018-03-28T02:45:24.376Z,36.10
2018-03-28T02:46:23.852Z,31.20
2018-03-28T02:48:18.817Z,36.60
2018-03-28T02:49:18.314Z,34.50
2018-03-28T02:51:13.774Z,26.30
2018-03-28T02:52:12.745Z,25.50
2018-03-28T02:54:07.167Z,22.40
2018-03-28T02:55:07.702Z,24.80
2018-03-28T02:57:03.660Z,28.10
2018-03-28T02:58:03.125Z,22.70
2018-03-28T02:59:59.083Z,23.50
2018-03-28T03:00:59.043Z,28.80
2018-03-28T03:02:55.023Z,27.30
2018-03-28T03:03:54.980Z,30.20
2018-03-28T03:05:49.956Z,27.40
2018-03-28T03:06:49.404Z,30.70
2018-03-28T03:08:45.316Z,26.70
2018-03-28T03:09:45.326Z,29.40
2018-03-28T03:11:39.794Z,26.80
2018-03-28T03:12:39.781Z,25.80
2018-03-28T03:14:34.291Z,29.90
2018-03-28T03:15:34.225Z,27.40
2018-03-28T03:17:28.655Z,25.50
2018-03-28T03:18:30.173Z,26.30
2018-03-28T03:20:23.105Z,33.20
2018-03-28T03:21:23.074Z,33.70
2018-03-28T03:23:19.013Z,24.90
2018-03-28T03:24:19.015Z,23.20
2018-03-28T03:26:14.481Z,28.50
2018-03-28T03:27:13.961Z,29.30
2018-03-28T03:29:08.926Z,22.90
2018-03-28T03:30:07.855Z,25.60
2018-03-28T03:32:02.796Z,25.90
2018-03-28T03:33:02.316Z,25.60
2018-03-28T03:34:59.243Z,23.60
2018-03-28T03:35:58.732Z,25.10
2018-03-28T03:37:52.670Z,25.60
2018-03-28T03:38:53.156Z,23.80
2018-03-28T03:40:48.575Z,22.10
2018-03-28T03:41:49.110Z,25.80
2018-03-28T03:43:43.039Z,26.80
2018-03-28T03:44:42.015Z,28.20
2018-03-28T03:46:35.953Z,28.80
2018-03-28T03:47:35.441Z,27.60
2018-03-28T03:49:29.931Z,31.10
2018-03-28T03:50:29.888Z,31.70
2018-03-28T03:52:28.779Z,32.10
2018-03-28T03:53:27.827Z,35.50
2018-03-28T03:55:22.297Z,35.90
2018-03-28T03:56:22.275Z,35.20
2018-03-28T03:58:18.755Z,36.20
2018-03-28T03:59:18.241Z,34.10
2018-03-28T04:01:11.712Z,30.30
2018-03-28T04:02:12.195Z,30.30
2018-03-28T04:04:07.654Z,32.90
2018-03-28T04:05:08.152Z,32.50
2018-03-28T04:07:06.574Z,42.50
2018-03-28T04:08:06.585Z,32.90
2018-03-28T04:10:00.177Z,34.00
2018-03-28T04:11:00.653Z,34.30
2018-03-28T04:12:53.586Z,39.90
2018-03-28T04:13:54.090Z,43.60
2018-03-28T04:15:47.546Z,45.40
2018-03-28T04:16:47.526Z,38.80
2018-03-28T04:18:42.964Z,41.70
2018-03-28T04:19:41.956Z,40.30
2018-03-28T04:21:35.874Z,37.00
2018-03-28T04:22:35.854Z,34.70
2018-03-28T04:24:30.309Z,33.30
2018-03-28T04:25:30.802Z,25.70
2018-03-28T04:27:23.750Z,27.60
2018-03-28T04:28:24.665Z,31.70
2018-03-28T04:30:19.672Z,29.50
2018-03-28T04:31:19.689Z,30.30
2018-03-28T04:33:15.627Z,26.80
2018-03-28T04:34:17.126Z,25.50
2018-03-28T04:36:10.056Z,28.00
2018-03-28T04:37:10.548Z,25.00
2018-03-28T04:39:04.986Z,27.80
2018-03-28T04:40:04.989Z,23.60
2018-03-28T04:41:58.908Z,26.20
2018-03-28T04:42:58.873Z,27.40
2018-03-28T04:44:52.354Z,24.30
2018-03-28T04:45:53.322Z,23.40
2018-03-28T04:47:46.815Z,23.20
2018-03-28T04:48:46.765Z,27.80
2018-03-28T04:50:41.239Z,30.80
2018-03-28T04:51:41.216Z,32.20
2018-03-28T04:53:35.174Z,33.60
2018-03-28T04:54:34.662Z,34.70
2018-03-28T04:56:29.615Z,30.00
2018-03-28T04:57:29.087Z,30.70
2018-03-28T04:59:23.566Z,34.10
2018-03-28T05:00:23.529Z,35.50
2018-03-28T05:02:18.006Z,37.20
2018-03-28T05:03:18.488Z,32.40
2018-03-28T05:05:13.428Z,40.40
2018-03-28T05:06:12.403Z,36.80
2018-03-28T05:08:06.839Z,39.40
2018-03-28T05:09:07.345Z,41.70
2018-03-28T05:11:01.266Z,40.90
2018-03-28T05:12:01.778Z,44.50
2018-03-28T05:13:54.704Z,45.30
2018-03-28T05:14:54.672Z,47.00
2018-03-28T05:16:49.629Z,45.70
2018-03-28T05:17:49.624Z,48.10
2018-03-28T05:19:43.534Z,52.00
2018-03-28T05:20:44.055Z,53.00
2018-03-28T05:22:42.550Z,59.80
2018-03-28T05:23:40.005Z,53.20
2018-03-28T05:25:33.915Z,53.40
2018-03-28T05:26:33.923Z,55.60
2018-03-28T05:28:29.898Z,46.10
2018-03-28T05:29:30.360Z,50.80
2018-03-28T05:31:24.264Z,54.40
2018-03-28T05:32:24.777Z,52.60
2018-03-28T05:34:18.713Z,56.90
2018-03-28T05:35:18.715Z,53.40
2018-03-28T05:37:12.160Z,53.20
2018-03-28T05:38:12.663Z,53.80
2018-03-28T05:40:07.089Z,59.80
2018-03-28T05:41:06.567Z,55.10
2018-03-28T05:43:02.024Z,63.00
2018-03-28T05:44:01.517Z,65.80
2018-03-28T05:45:55.972Z,55.90
2018-03-28T05:46:55.967Z,59.10
2018-03-28T05:48:50.884Z,53.80
2018-03-28T05:49:49.835Z,62.70
2018-03-28T05:51:44.309Z,73.90
2018-03-28T05:52:44.263Z,70.30
2018-03-28T05:54:37.741Z,70.80
2018-03-28T05:55:37.691Z,68.00
2018-03-28T05:57:34.643Z,71.80
2018-03-28T05:58:33.635Z,70.30
2018-03-28T06:00:27.067Z,76.30
2018-03-28T06:01:27.063Z,75.70
2018-03-28T06:03:21.539Z,81.20
2018-03-28T06:04:21.523Z,82.40
2018-03-28T06:06:16.481Z,79.10
2018-03-28T06:07:15.963Z,79.60
2018-03-28T06:09:10.924Z,78.20
2018-03-28T06:10:10.361Z,81.30
2018-03-28T06:12:04.316Z,85.80
2018-03-28T06:13:03.817Z,78.00
2018-03-28T06:14:58.250Z,79.80
2018-03-28T06:15:58.238Z,77.70
2018-03-28T06:17:51.673Z,79.10
2018-03-28T06:18:51.655Z,78.70
2018-03-28T06:20:46.125Z,83.40
2018-03-28T06:21:46.618Z,80.10
2018-03-28T06:23:40.556Z,85.50
2018-03-28T06:24:40.539Z,80.90
2018-03-28T06:26:35.485Z,83.10
2018-03-28T06:27:34.961Z,77.80
2018-03-28T06:29:30.427Z,74.60
2018-03-28T06:30:29.417Z,81.70
2018-03-28T06:32:24.352Z,80.40
2018-03-28T06:33:23.863Z,74.00
2018-03-28T06:35:18.281Z,80.60
2018-03-28T06:36:18.309Z,82.20
2018-03-28T06:38:11.717Z,86.10
2018-03-28T06:39:11.706Z,78.70
2018-03-28T06:41:06.663Z,80.60
2018-03-28T06:42:06.172Z,82.80
2018-03-28T06:44:00.105Z,79.00
2018-03-28T06:44:59.595Z,76.80
2018-03-28T06:46:53.052Z,72.00
2018-03-28T06:47:53.022Z,71.20
2018-03-28T06:49:48.467Z,80.60
2018-03-28T06:50:47.985Z,74.20
2018-03-28T06:52:40.906Z,83.20
2018-03-28T06:53:43.336Z,79.90
2018-03-28T06:55:35.346Z,77.80
2018-03-28T06:56:35.330Z,77.90
2018-03-28T06:58:29.276Z,76.50
2018-03-28T06:59:28.744Z,67.30
2018-03-28T07:01:22.193Z,62.40
2018-03-28T07:02:22.176Z,60.40
2018-03-28T07:04:16.614Z,60.30
2018-03-28T07:05:16.627Z,61.30
2018-03-28T07:07:11.096Z,66.40
2018-03-28T07:08:11.063Z,65.40
2018-03-28T07:10:05.019Z,63.30
2018-03-28T07:11:04.501Z,60.60
2018-03-28T07:12:59.958Z,57.60
2018-03-28T07:13:59.455Z,59.30
2018-03-28T07:15:53.906Z,56.20
2018-03-28T07:16:54.911Z,53.90
2018-03-28T07:18:47.853Z,54.00
2018-03-28T07:19:47.787Z,53.60
2018-03-28T07:21:42.742Z,52.80
2018-03-28T07:22:42.222Z,52.40
2018-03-28T07:24:36.630Z,49.50
2018-03-28T07:25:36.644Z,54.50
2018-03-28T07:27:31.106Z,52.30
2018-03-28T07:28:31.080Z,54.40
2018-03-28T07:30:26.062Z,50.50
2018-03-28T07:31:26.040Z,47.60
2018-03-28T07:33:18.955Z,49.40
2018-03-28T07:34:19.534Z,45.20
2018-03-28T07:36:12.411Z,47.90
2018-03-28T07:37:12.384Z,47.20
2018-03-28T07:39:06.864Z,59.90
2018-03-28T07:40:06.806Z,49.40
2018-03-28T07:42:02.249Z,45.70
2018-03-28T07:43:01.244Z,44.80
2018-03-28T07:44:55.668Z,47.70
2018-03-28T07:45:55.669Z,46.60
2018-03-28T07:47:49.106Z,42.70
2018-03-28T07:48:49.122Z,46.40
2018-03-28T07:50:42.525Z,40.70
2018-03-28T07:51:42.541Z,39.90
2018-03-28T07:53:37.484Z,40.30
2018-03-28T07:54:35.966Z,42.80
2018-03-28T07:56:30.974Z,40.30
2018-03-28T07:57:30.409Z,41.30
2018-03-28T07:59:24.372Z,41.00
2018-03-28T08:00:23.910Z,42.80
2018-03-28T08:02:19.313Z,39.00
2018-03-28T08:03:18.815Z,39.40
2018-03-28T08:05:11.761Z,42.80
2018-03-28T08:06:12.241Z,40.20
2018-03-28T08:08:07.198Z,41.30
2018-03-28T08:09:06.199Z,38.80
2018-03-28T08:11:02.150Z,34.00
2018-03-28T08:12:00.643Z,37.10
2018-03-28T08:13:55.088Z,35.10
2018-03-28T08:14:55.595Z,35.40
2018-03-28T08:16:49.547Z,35.10
2018-03-28T08:17:49.525Z,38.40
2018-03-28T08:19:44.482Z,40.60
2018-03-28T08:20:43.984Z,42.10
2018-03-28T08:22:37.430Z,43.90
2018-03-28T08:23:37.921Z,43.20
2018-03-28T08:25:33.368Z,40.90
2018-03-28T08:26:31.847Z,40.40
2018-03-28T08:28:25.832Z,40.20
2018-03-28T08:29:25.295Z,39.80
2018-03-28T08:31:19.762Z,37.80
2018-03-28T08:32:20.252Z,43.50
2018-03-28T08:34:15.195Z,39.20
2018-03-28T08:35:14.194Z,40.10
2018-03-28T08:37:10.141Z,41.00
2018-03-28T08:38:09.646Z,39.00
2018-03-28T08:40:02.147Z,41.00
2018-03-28T08:41:02.133Z,39.20
2018-03-28T08:42:56.561Z,36.90
2018-03-28T08:43:56.562Z,36.50
2018-03-28T08:45:51.021Z,38.20
2018-03-28T08:46:51.006Z,42.70
2018-03-28T08:48:44.953Z,39.10
2018-03-28T08:49:44.407Z,39.40
2018-03-28T08:51:39.359Z,39.70
2018-03-28T08:52:39.364Z,38.90
2018-03-28T08:54:33.264Z,36.80
2018-03-28T08:55:33.788Z,36.30
2018-03-28T08:57:26.742Z,39.50
2018-03-28T08:58:26.706Z,36.80
2018-03-28T09:00:20.180Z,33.30
2018-03-28T09:01:20.140Z,36.50
2018-03-28T09:03:14.096Z,32.70
2018-03-28T09:04:13.583Z,34.20
2018-03-28T09:06:07.068Z,37.70
2018-03-28T09:07:07.532Z,36.10
2018-03-28T09:09:01.423Z,35.20
2018-03-28T09:10:01.974Z,31.90
2018-03-28T09:11:54.431Z,35.50
2018-03-28T09:12:55.374Z,35.10
2018-03-28T09:14:48.370Z,35.00
2018-03-28T09:15:47.852Z,35.10
2018-03-28T09:17:42.344Z,38.40
2018-03-28T09:18:42.811Z,34.60
2018-03-28T09:20:35.787Z,34.70
2018-03-28T09:21:35.751Z,33.90
2018-03-28T09:23:29.692Z,35.00
2018-03-28T09:24:29.687Z,31.50
2018-03-28T09:26:23.630Z,35.00
2018-03-28T09:27:24.163Z,37.70
2018-03-28T09:29:18.582Z,36.50
2018-03-28T09:30:18.027Z,34.20
2018-03-28T09:32:11.488Z,34.60
2018-03-28T09:33:11.454Z,36.40
2018-03-28T09:35:05.433Z,36.90
2018-03-28T09:36:04.900Z,32.90
2018-03-28T09:37:58.899Z,32.60
2018-03-28T09:38:59.366Z,29.20
2018-03-28T09:40:52.794Z,29.20
2018-03-28T09:41:52.803Z,29.10
2018-03-28T09:43:47.753Z,27.10
2018-03-28T09:44:47.236Z,29.00
2018-03-28T09:46:41.715Z,31.50
2018-03-28T09:47:42.199Z,26.50
2018-03-28T09:49:36.117Z,28.20
2018-03-28T09:50:36.129Z,25.40
2018-03-28T09:52:30.075Z,25.30
2018-03-28T09:53:29.560Z,29.40
2018-03-28T09:55:22.989Z,25.50
2018-03-28T09:56:23.509Z,28.10
2018-03-28T09:58:16.460Z,27.70
2018-03-28T09:59:16.442Z,26.90
2018-03-28T10:01:10.874Z,24.90
2018-03-28T10:02:10.892Z,22.40
2018-03-28T10:04:06.346Z,25.30
2018-03-28T10:05:05.851Z,26.60
2018-03-28T10:06:59.286Z,28.70
2018-03-28T10:07:58.775Z,26.20
2018-03-28T10:09:52.240Z,25.20
2018-03-28T10:10:52.228Z,24.90
2018-03-28T10:12:46.661Z,24.90
2018-03-28T10:13:48.182Z,24.70
2018-03-28T10:15:40.617Z,23.40
2018-03-28T10:16:40.100Z,24.90
2018-03-28T10:18:34.051Z,22.20
2018-03-28T10:19:33.509Z,19.00
2018-03-28T10:21:28.966Z,18.10
2018-03-28T10:22:27.983Z,20.20
2018-03-28T10:24:23.936Z,16.70
2018-03-28T10:25:22.934Z,19.70
2018-03-28T10:27:17.375Z,20.50
2018-03-28T10:28:16.876Z,22.50
2018-03-28T10:30:10.325Z,19.50
2018-03-28T10:31:10.318Z,18.30
2018-03-28T10:33:05.284Z,20.50
2018-03-28T10:34:03.762Z,18.60
2018-03-28T10:35:58.224Z,18.20
2018-03-28T10:36:58.223Z,23.50
2018-03-28T10:38:53.175Z,17.20
2018-03-28T10:39:53.167Z,16.70
2018-03-28T10:41:47.609Z,19.40
2018-03-28T10:42:47.065Z,16.70
2018-03-28T10:44:43.542Z,16.50
2018-03-28T10:45:43.041Z,17.10
2018-03-28T10:47:37.475Z,17.00
2018-03-28T10:48:37.541Z,18.40
2018-03-28T10:50:31.935Z,17.50
2018-03-28T10:51:31.925Z,14.30
2018-03-28T10:53:26.881Z,14.60
2018-03-28T10:54:26.365Z,13.70
2018-03-28T10:56:20.822Z,19.50
2018-03-28T10:57:20.819Z,14.80
2018-03-28T10:59:15.232Z,15.70
2018-03-28T11:00:16.779Z,15.60
2018-03-28T11:02:08.694Z,14.40
2018-03-28T11:03:08.692Z,13.90
2018-03-28T11:05:03.129Z,15.00
2018-03-28T11:06:03.135Z,16.00
2018-03-28T11:07:58.625Z,17.40
2018-03-28T11:08:57.629Z,19.20
2018-03-28T11:10:52.088Z,20.10
2018-03-28T11:11:52.079Z,20.90
2018-03-28T11:13:48.528Z,20.40
2018-03-28T11:14:48.525Z,18.20
2018-03-28T11:16:42.492Z,20.90
2018-03-28T11:17:42.481Z,18.60
2018-03-28T11:19:37.416Z,17.30
2018-03-28T11:20:37.416Z,16.60
2018-03-28T11:22:30.849Z,13.40
2018-03-28T11:23:30.330Z,14.60
2018-03-28T11:25:24.762Z,11.60
2018-03-28T11:26:24.770Z,10.90
2018-03-28T11:28:18.240Z,13.80
2018-03-28T11:29:19.244Z,15.20
2018-03-28T11:31:13.695Z,11.20
2018-03-28T11:32:12.662Z,11.50
2018-03-28T11:34:07.062Z,8.30
2018-03-28T11:35:06.115Z,10.60
2018-03-28T11:37:00.600Z,8.80
2018-03-28T11:38:00.648Z,8.30
2018-03-28T11:39:54.026Z,8.80
2018-03-28T11:40:54.522Z,10.60
2018-03-28T11:42:50.467Z,8.50
2018-03-28T11:43:49.968Z,8.70
2018-03-28T11:45:41.943Z,8.50
2018-03-28T11:46:42.406Z,8.90
2018-03-28T11:48:35.326Z,8.80
2018-03-28T11:49:35.321Z,9.30
2018-03-28T11:51:31.284Z,9.00
2018-03-28T11:52:29.781Z,9.20
2018-03-28T11:54:24.234Z,8.70
2018-03-28T11:55:24.217Z,8.70
2018-03-28T11:57:17.700Z,9.40
2018-03-28T11:58:17.673Z,8.90
2018-03-28T12:00:12.155Z,10.10
2018-03-28T12:01:12.633Z,9.50
2018-03-28T12:03:07.577Z,9.60
2018-03-28T12:04:06.582Z,10.30
2018-03-28T12:06:01.073Z,9.90
2018-03-28T12:07:01.013Z,10.00
2018-03-28T12:08:54.474Z,8.80
2018-03-28T12:09:54.978Z,8.30
2018-03-28T12:11:48.436Z,10.10
2018-03-28T12:12:48.408Z,9.70
2018-03-28T12:14:42.356Z,9.80
2018-03-28T12:15:42.365Z,9.40
2018-03-28T12:17:36.822Z,10.00
2018-03-28T12:18:36.808Z,10.20
2018-03-28T12:20:30.261Z,9.50
2018-03-28T12:21:30.264Z,10.80
2018-03-28T12:23:24.725Z,10.10
2018-03-28T12:24:24.698Z,9.20
2018-03-28T12:26:19.665Z,10.00
2018-03-28T12:27:19.152Z,9.20
2018-03-28T12:29:14.109Z,13.00
2018-03-28T12:30:13.563Z,13.30
2018-03-28T12:32:08.521Z,14.30
2018-03-28T12:33:08.008Z,13.60
2018-03-28T12:35:03.472Z,10.80
2018-03-28T12:36:02.464Z,10.40
2018-03-28T12:37:55.936Z,15.40
2018-03-28T12:38:55.892Z,18.20
2018-03-28T12:40:50.348Z,13.50
2018-03-28T12:41:50.346Z,12.70
2018-03-28T12:43:45.296Z,12.60
2018-03-28T12:44:44.296Z,12.90
2018-03-28T12:46:38.235Z,20.00
2018-03-28T12:47:38.736Z,17.50
2018-03-28T12:49:32.732Z,19.40
2018-03-28T12:50:32.680Z,14.70
2018-03-28T12:52:27.155Z,12.90
2018-03-28T12:53:27.689Z,17.10
2018-03-28T12:55:21.670Z,12.00
2018-03-28T12:56:21.592Z,12.80
2018-03-28T12:58:16.070Z,15.90
2018-03-28T12:59:16.028Z,12.70
2018-03-28T13:01:10.452Z,14.20
2018-03-28T13:02:10.477Z,16.00
2018-03-28T13:04:04.422Z,16.30
2018-03-28T13:05:04.842Z,17.80
2018-03-28T13:06:58.363Z,14.60
2018-03-28T13:07:58.413Z,13.20
2018-03-28T13:09:53.298Z,14.00
2018-03-28T13:10:52.792Z,13.50
2018-03-28T13:12:46.229Z,14.30
2018-03-28T13:13:46.226Z,19.70
2018-03-28T13:15:40.181Z,16.80
2018-03-28T13:16:39.665Z,15.70
2018-03-28T13:18:34.121Z,15.70
2018-03-28T13:19:33.096Z,16.10
2018-03-28T13:21:27.537Z,12.60
2018-03-28T13:22:27.514Z,11.80
2018-03-28T13:24:20.946Z,15.40
2018-03-28T13:25:20.961Z,12.40
2018-03-28T13:27:15.906Z,19.30
2018-03-28T13:28:15.384Z,20.60
2018-03-28T13:30:09.846Z,16.00
2018-03-28T13:31:10.339Z,14.60
2018-03-28T13:33:04.262Z,17.70
2018-03-28T13:34:04.257Z,19.00
2018-03-28T13:35:57.779Z,19.50
2018-03-28T13:36:57.777Z,18.00
2018-03-28T13:38:51.284Z,19.90
2018-03-28T13:39:51.301Z,19.50
2018-03-28T13:41:45.742Z,19.00
2018-03-28T13:42:45.723Z,22.00
2018-03-28T13:44:39.669Z,18.40
2018-03-28T13:45:39.144Z,20.00
2018-03-28T13:47:33.645Z,20.80
2018-03-28T13:48:33.598Z,22.10
2018-03-28T13:50:28.559Z,17.80
2018-03-28T13:51:29.471Z,16.00
2018-03-28T13:53:22.472Z,16.10
2018-03-28T13:54:22.460Z,16.40
2018-03-28T13:56:15.916Z,18.30
2018-03-28T13:57:15.922Z,16.80
2018-03-28T13:59:10.374Z,14.60
2018-03-28T14:00:10.884Z,15.80
2018-03-28T14:02:03.792Z,17.40
2018-03-28T14:03:03.743Z,18.70
2018-03-28T14:04:58.183Z,17.90
2018-03-28T14:05:58.185Z,20.20
2018-03-28T14:07:52.614Z,16.30
2018-03-28T14:08:52.622Z,18.60
2018-03-28T14:10:48.599Z,22.00
2018-03-28T14:11:47.584Z,14.80
2018-03-28T14:13:42.020Z,17.70
2018-03-28T14:14:41.489Z,15.40
2018-03-28T14:16:35.955Z,18.70
2018-03-28T14:17:36.439Z,18.20
2018-03-28T14:19:32.805Z,16.00
2018-03-28T14:20:30.384Z,15.50
2018-03-28T14:22:24.802Z,16.50
2018-03-28T14:23:25.333Z,16.70
2018-03-28T14:25:19.273Z,17.10
2018-03-28T14:26:20.767Z,17.80
2018-03-28T14:28:13.713Z,17.80
2018-03-28T14:29:13.672Z,20.50
2018-03-28T14:31:08.126Z,16.50
2018-03-28T14:32:08.117Z,19.10
2018-03-28T14:34:02.580Z,19.80
2018-03-28T14:35:02.551Z,19.80
2018-03-28T14:36:55.978Z,18.40
2018-03-28T14:37:55.980Z,20.00
2018-03-28T14:39:50.428Z,18.50
2018-03-28T14:40:50.923Z,19.10
2018-03-28T14:42:54.589Z,18.50
2018-03-28T14:43:44.828Z,19.20
2018-03-28T14:45:38.267Z,17.00
2018-03-28T14:46:38.261Z,19.00
2018-03-28T14:48:33.714Z,19.90
2018-03-28T14:49:32.726Z,19.90
2018-03-28T14:51:27.112Z,17.20
2018-03-28T14:52:27.609Z,17.70
2018-03-28T14:54:22.033Z,14.30
2018-03-28T14:55:21.552Z,17.80
2018-03-28T14:57:15.000Z,18.90
2018-03-28T14:58:14.958Z,15.70
2018-03-28T15:00:09.941Z,17.50
2018-03-28T15:01:09.406Z,17.00
2018-03-28T15:03:04.382Z,15.00
2018-03-28T15:04:03.844Z,23.40
2018-03-28T15:05:57.796Z,14.40
2018-03-28T15:06:57.276Z,16.20
2018-03-28T15:08:52.716Z,15.60
2018-03-28T15:09:51.703Z,15.80
2018-03-28T15:11:46.651Z,14.20
2018-03-28T15:12:46.123Z,14.80
2018-03-28T15:14:40.546Z,15.00
2018-03-28T15:15:40.571Z,13.00
2018-03-28T15:17:34.030Z,11.60
2018-03-28T15:18:34.004Z,13.40
2018-03-28T15:20:28.414Z,16.00
2018-03-28T15:21:28.412Z,15.90
2018-03-28T15:23:22.393Z,14.80
2018-03-28T15:24:21.878Z,17.10
2018-03-28T15:26:15.324Z,15.30
2018-03-28T15:27:16.332Z,15.40
2018-03-28T15:29:10.779Z,12.90
2018-03-28T15:30:09.745Z,15.30
2018-03-28T15:32:04.185Z,14.60
2018-03-28T15:33:04.170Z,12.30
2018-03-28T15:34:59.134Z,14.50
2018-03-28T15:35:58.607Z,16.20
2018-03-28T15:37:53.562Z,13.00
2018-03-28T15:38:53.058Z,10.40
2018-03-28T15:40:47.489Z,13.60
2018-03-28T15:41:47.487Z,13.40
2018-03-28T15:43:42.942Z,15.70
2018-03-28T15:44:41.933Z,14.80
2018-03-28T15:46:36.898Z,13.50
2018-03-28T15:47:36.403Z,14.40
2018-03-28T15:49:30.347Z,13.60
2018-03-28T15:50:30.392Z,13.90
2018-03-28T15:52:24.789Z,11.90
2018-03-28T15:53:24.299Z,12.10
2018-03-28T15:55:17.708Z,10.00
2018-03-28T15:56:17.721Z,12.10
2018-03-28T15:58:13.169Z,14.80
2018-03-28T15:59:12.151Z,12.10
2018-03-28T16:01:06.595Z,15.40
2018-03-28T16:02:06.589Z,13.80
2018-03-28T16:04:01.548Z,12.40
2018-03-28T16:05:01.549Z,16.50
2018-03-28T16:06:55.457Z,11.10
2018-03-28T16:07:55.460Z,12.20
2018-03-28T16:09:48.909Z,12.40
2018-03-28T16:10:48.915Z,12.60
2018-03-28T16:12:43.858Z,12.60
2018-03-28T16:13:43.856Z,11.90
2018-03-28T16:15:36.810Z,15.00
2018-03-28T16:16:37.305Z,16.10
2018-03-28T16:18:30.740Z,11.70
2018-03-28T16:19:30.169Z,11.70
2018-03-28T16:21:25.129Z,13.40
2018-03-28T16:22:24.636Z,11.70
2018-03-28T16:24:18.567Z,10.10
2018-03-28T16:25:18.063Z,12.20
2018-03-28T16:27:12.489Z,15.20
2018-03-28T16:28:12.475Z,11.20
2018-03-28T16:30:06.444Z,11.70
2018-03-28T16:31:06.430Z,10.60
2018-03-28T16:32:59.897Z,14.00
2018-03-28T16:33:59.410Z,13.10
2018-03-28T16:35:55.371Z,10.90
2018-03-28T16:36:54.363Z,11.70
2018-03-28T16:38:48.312Z,15.40
2018-03-28T16:39:48.777Z,15.10
2018-03-28T16:41:43.175Z,14.10
2018-03-28T16:42:42.654Z,10.90
2018-03-28T16:44:37.629Z,17.50
2018-03-28T16:45:36.620Z,9.80
2018-03-28T16:47:30.560Z,17.00
2018-03-28T16:48:30.070Z,13.40
2018-03-28T16:50:23.515Z,14.30
2018-03-28T16:51:22.973Z,14.30
2018-03-28T16:53:16.432Z,11.60
2018-03-28T16:54:16.933Z,12.80
2018-03-28T16:56:10.902Z,14.70
2018-03-28T16:57:11.363Z,12.10
2018-03-28T16:59:04.803Z,12.60
2018-03-28T17:00:04.263Z,14.30
2018-03-28T17:01:57.745Z,14.00
2018-03-28T17:02:58.205Z,13.30
2018-03-28T17:04:52.163Z,15.30
2018-03-28T17:05:52.142Z,14.00
2018-03-28T17:07:47.568Z,12.90
2018-03-28T17:08:46.580Z,13.60
2018-03-28T17:10:41.025Z,14.50
2018-03-28T17:11:41.534Z,11.90
2018-03-28T17:13:36.919Z,11.90
2018-03-28T17:14:35.978Z,12.90
2018-03-28T17:16:29.413Z,13.20
2018-03-28T17:17:28.919Z,13.20
2018-03-28T17:19:24.394Z,14.70
2018-03-28T17:20:23.359Z,11.50
2018-03-28T17:22:19.794Z,13.50
2018-03-28T17:23:19.328Z,12.70
2018-03-28T17:25:13.734Z,14.00
2018-03-28T17:26:14.231Z,15.40
2018-03-28T17:28:07.154Z,15.00
2018-03-28T17:29:07.166Z,13.40
2018-03-28T17:31:01.636Z,9.80
2018-03-28T17:32:01.600Z,12.60
2018-03-28T17:33:56.032Z,12.90
2018-03-28T17:34:56.043Z,13.50
2018-03-28T17:36:50.469Z,11.80
2018-03-28T17:37:50.465Z,12.30
2018-03-28T17:39:43.941Z,12.70
2018-03-28T17:40:43.904Z,10.10
2018-03-28T17:42:38.338Z,13.50
2018-03-28T17:43:38.343Z,14.30
2018-03-28T17:45:32.774Z,9.80
2018-03-28T17:46:32.773Z,12.20
2018-03-28T17:48:26.237Z,10.80
2018-03-28T17:49:26.181Z,14.10
2018-03-28T17:51:19.639Z,12.60
2018-03-28T17:52:19.628Z,11.60
2018-03-28T17:54:13.069Z,9.70
2018-03-28T17:55:13.586Z,9.90
2018-03-28T17:57:07.536Z,6.40
2018-03-28T17:58:08.015Z,6.50
2018-03-28T18:00:01.972Z,5.50
2018-03-28T18:01:02.470Z,7.40
2018-03-28T18:02:55.912Z,5.80
2018-03-28T18:03:55.900Z,5.00
2018-03-28T18:05:50.326Z,4.00
2018-03-28T18:06:50.310Z,3.40
2018-03-28T18:08:44.257Z,4.40
2018-03-28T18:09:44.208Z,3.70
2018-03-28T18:11:39.163Z,3.80
2018-03-28T18:12:38.645Z,2.40
2018-03-28T18:14:33.598Z,5.10
2018-03-28T18:15:33.088Z,5.20
2018-03-28T18:17:27.553Z,6.00
2018-03-28T18:18:26.554Z,5.40
2018-03-28T18:20:20.011Z,6.60
2018-03-28T18:21:20.040Z,5.50
2018-03-28T18:23:14.466Z,5.90
2018-03-28T18:24:14.435Z,6.20
2018-03-28T18:26:08.913Z,6.50
2018-03-28T18:27:09.387Z,7.40
2018-03-28T18:29:03.312Z,7.50
2018-03-28T18:30:03.289Z,5.80
2018-03-28T18:31:57.750Z,6.40
2018-03-28T18:32:57.744Z,7.00
2018-03-28T18:34:52.703Z,6.30
2018-03-28T18:35:52.202Z,6.90
2018-03-28T18:37:46.642Z,6.60
2018-03-28T18:38:46.620Z,6.60
2018-03-28T18:40:41.115Z,7.00
2018-03-28T18:41:41.056Z,6.60
2018-03-28T18:43:35.996Z,6.40
2018-03-28T18:44:34.479Z,6.60